createdAt,value
2018-09-20T00:00:14.061Z,16.10
2018-09-20T00:02:42.599Z,16.10
2018-09-20T00:05:11.022Z,16.10
2018-09-20T00:07:39.568Z,16.20
2018-09-20T00:10:08.082Z,16.10
2018-09-20T00:12:36.648Z,16.10
2018-09-20T00:15:05.371Z,16.00
2018-09-20T00:17:33.824Z,16.00
2018-09-20T00:20:02.627Z,16.00
2018-09-20T00:22:31.174Z,16.00
2018-09-20T00:24:59.621Z,16.00
2018-09-20T00:27:28.071Z,15.90
2018-09-20T00:29:56.531Z,16.00
2018-09-20T00:32:24.971Z,16.10
2018-09-20T00:34:53.486Z,16.20
2018-09-20T00:37:21.982Z,16.40
2018-09-20T00:39:50.518Z,16.60
2018-09-20T00:42:18.995Z,16.80
2018-09-20T00:44:47.430Z,16.80
2018-09-20T00:47:15.894Z,16.60
2018-09-20T00:49:44.470Z,16.60
2018-09-20T00:52:12.967Z,16.50
2018-09-20T00:54:41.425Z,16.50
2018-09-20T00:57:09.863Z,16.40
2018-09-20T00:59:38.327Z,16.40
2018-09-20T01:02:06.778Z,16.40
2018-09-20T01:04:35.251Z,16.60
2018-09-20T01:07:03.902Z,16.90
2018-09-20T01:09:32.358Z,16.90
2018-09-20T01:12:00.826Z,16.90
2018-09-20T01:14:29.310Z,16.80
2018-09-20T01:16:57.771Z,16.70
2018-09-20T01:19:26.198Z,16.70
2018-09-20T01:21:54.736Z,16.80
2018-09-20T01:24:23.188Z,16.80
2018-09-20T01:26:52.680Z,16.60
2018-09-20T01:29:21.145Z,16.50
2018-09-20T01:31:49.583Z,16.30
2018-09-20T01:34:18.019Z,16.20
2018-09-20T01:36:46.511Z,16.00
2018-09-20T01:39:15.944Z,16.00
2018-09-20T01:41:44.451Z,15.90
2018-09-20T01:44:13.379Z,16.00
2018-09-20T01:46:42.067Z,16.00
2018-09-20T01:49:10.607Z,15.90
2018-09-20T01:51:39.182Z,15.90
2018-09-20T01:54:07.629Z,15.90
2018-09-20T01:56:36.113Z,15.90
2018-09-20T01:59:04.596Z,15.80
2018-09-20T02:01:33.050Z,15.80
2018-09-20T02:04:01.496Z,15.80
2018-09-20T02:06:29.946Z,15.70
2018-09-20T02:08:58.398Z,15.70
2018-09-20T02:11:26.883Z,15.70
2018-09-20T02:13:55.374Z,15.70
2018-09-20T02:16:23.824Z,15.60
2018-09-20T02:18:52.313Z,15.60
2018-09-20T02:21:20.765Z,15.60
2018-09-20T02:23:49.242Z,15.60
2018-09-20T02:26:17.696Z,15.60
2018-09-20T02:28:46.482Z,15.60
2018-09-20T02:31:14.918Z,15.50
2018-09-20T02:33:43.375Z,15.50
2018-09-20T02:36:11.859Z,15.60
2018-09-20T02:38:40.439Z,15.50
2018-09-20T02:41:09.290Z,15.40
2018-09-20T02:43:37.877Z,15.40
2018-09-20T02:46:06.318Z,15.40
2018-09-20T02:48:35.032Z,15.40
2018-09-20T02:51:03.563Z,15.40
2018-09-20T02:53:32.008Z,15.30
2018-09-20T02:56:00.511Z,15.30
2018-09-20T02:58:29.034Z,15.20
2018-09-20T03:00:57.482Z,15.30
2018-09-20T03:03:25.933Z,15.20
2018-09-20T03:05:54.395Z,15.20
2018-09-20T03:08:22.863Z,15.10
2018-09-20T03:14:29.018Z,15.10
2018-09-20T03:16:57.716Z,15.00
2018-09-20T03:19:26.155Z,15.00
2018-09-20T03:21:54.614Z,14.90
2018-09-20T03:24:23.118Z,14.90
2018-09-20T03:26:51.611Z,14.90
2018-09-20T03:29:20.091Z,14.80
2018-09-20T03:31:48.534Z,14.90
2018-09-20T03:34:17.024Z,14.80
2018-09-20T03:36:45.516Z,14.80
2018-09-20T03:39:14.007Z,14.80
2018-09-20T03:41:42.455Z,14.70
2018-09-20T03:44:10.903Z,14.70
2018-09-20T03:46:39.374Z,14.70
2018-09-20T03:49:07.826Z,14.60
2018-09-20T03:51:36.323Z,14.60
2018-09-20T03:54:04.781Z,14.60
2018-09-20T03:56:33.439Z,14.60
2018-09-20T03:59:01.885Z,14.60
2018-09-20T04:01:30.363Z,14.60
2018-09-20T04:03:58.936Z,14.60
2018-09-20T04:06:27.408Z,14.50
2018-09-20T04:08:55.876Z,14.50
2018-09-20T04:11:24.394Z,14.50
2018-09-20T04:13:52.851Z,14.50
2018-09-20T04:16:21.332Z,14.50
2018-09-20T04:18:49.851Z,14.50
2018-09-20T04:21:34.226Z,14.50
2018-09-20T04:24:04.755Z,14.40
2018-09-20T04:26:33.353Z,14.40
2018-09-20T04:29:02.105Z,14.40
2018-09-20T04:31:31.139Z,14.40
2018-09-20T04:34:00.738Z,14.40
2018-09-20T04:36:29.810Z,14.40
2018-09-20T04:38:58.439Z,14.40
2018-09-20T04:41:26.927Z,14.30
2018-09-20T04:43:55.415Z,14.40
2018-09-20T04:46:23.917Z,14.30
2018-09-20T04:48:52.407Z,14.30
2018-09-20T04:51:20.890Z,14.40
2018-09-20T04:53:49.391Z,14.40
2018-09-20T04:56:17.875Z,14.40
2018-09-20T04:58:46.428Z,14.40
2018-09-20T05:01:14.914Z,14.30
2018-09-20T05:03:43.374Z,14.30
2018-09-20T05:06:11.821Z,14.30
2018-09-20T05:08:40.302Z,14.30
2018-09-20T05:11:09.022Z,14.20
2018-09-20T05:13:37.527Z,14.30
2018-09-20T05:16:06.001Z,14.30
2018-09-20T05:18:34.477Z,14.30
2018-09-20T05:21:02.929Z,14.20
2018-09-20T05:23:31.417Z,14.30
2018-09-20T05:25:59.911Z,14.30
2018-09-20T05:28:28.469Z,14.30
2018-09-20T05:30:56.958Z,14.30
2018-09-20T05:33:25.458Z,14.40
2018-09-20T05:35:53.950Z,14.40
2018-09-20T05:38:22.415Z,14.60
2018-09-20T05:40:51.002Z,14.60
2018-09-20T05:43:19.723Z,14.70
2018-09-20T05:45:48.386Z,14.70
2018-09-20T05:48:17.145Z,14.70
2018-09-20T05:50:45.907Z,14.80
2018-09-20T05:53:14.391Z,14.90
2018-09-20T05:55:42.868Z,14.90
2018-09-20T05:58:11.370Z,14.90
2018-09-20T06:00:39.872Z,15.00
2018-09-20T06:03:08.335Z,15.10
2018-09-20T06:05:36.833Z,15.20
2018-09-20T06:08:05.330Z,15.30
2018-09-20T06:10:33.799Z,15.40
2018-09-20T06:13:08.114Z,15.50
2018-09-20T06:15:37.017Z,15.60
2018-09-20T06:18:06.002Z,15.80
2018-09-20T06:20:34.886Z,15.90
2018-09-20T06:23:03.669Z,16.10
2018-09-20T06:25:32.590Z,16.40
2018-09-20T06:28:03.769Z,16.60
2018-09-20T06:30:32.688Z,16.80
2018-09-20T06:33:01.543Z,17.00
2018-09-20T06:35:30.767Z,17.10
2018-09-20T06:37:59.597Z,17.30
2018-09-20T06:40:28.450Z,17.60
2018-09-20T06:42:57.282Z,17.80
2018-09-20T06:45:26.147Z,18.10
2018-09-20T06:47:54.992Z,18.20
2018-09-20T06:50:24.005Z,18.40
2018-09-20T06:52:52.896Z,18.40
2018-09-20T06:55:21.800Z,18.40
2018-09-20T06:57:50.700Z,18.80
2018-09-20T07:00:19.577Z,19.00
2018-09-20T07:02:48.447Z,19.20
2018-09-20T07:05:17.307Z,19.30
2018-09-20T07:07:46.184Z,19.40
2018-09-20T07:10:15.054Z,19.50
2018-09-20T07:12:43.961Z,19.70
2018-09-20T07:15:12.902Z,19.90
2018-09-20T07:17:41.860Z,19.90
2018-09-20T07:20:10.958Z,20.10
2018-09-20T07:22:39.835Z,20.20
2018-09-20T07:25:08.761Z,20.40
2018-09-20T07:27:37.656Z,20.60
2018-09-20T07:30:06.749Z,20.80
2018-09-20T07:32:35.547Z,21.10
2018-09-20T07:35:04.446Z,21.20
2018-09-20T07:37:33.322Z,21.30
2018-09-20T07:40:02.155Z,21.50
2018-09-20T07:42:30.944Z,21.90
2018-09-20T07:44:59.872Z,21.60
2018-09-20T07:47:28.769Z,21.70
2018-09-20T07:49:57.573Z,21.90
2018-09-20T07:52:26.587Z,22.30
2018-09-20T07:54:55.445Z,22.60
2018-09-20T07:57:26.070Z,23.80
2018-09-20T07:59:55.082Z,25.50
2018-09-20T08:02:24.574Z,27.80
2018-09-20T08:04:53.606Z,29.50
2018-09-20T08:07:22.514Z,29.60
2018-09-20T08:09:51.484Z,30.50
2018-09-20T08:12:20.340Z,31.20
2018-09-20T08:14:49.243Z,31.70
2018-09-20T08:17:18.145Z,31.20
2018-09-20T08:19:47.089Z,33.30
2018-09-20T08:22:16.015Z,33.30
2018-09-20T08:24:45.083Z,32.50
2018-09-20T08:27:13.926Z,32.70
2018-09-20T08:29:42.830Z,33.10
2018-09-20T08:32:11.648Z,34.50
2018-09-20T08:34:40.507Z,35.00
2018-09-20T08:37:09.510Z,35.10
2018-09-20T08:39:38.350Z,35.20
2018-09-20T08:42:07.427Z,34.90
2018-09-20T08:44:36.171Z,35.60
2018-09-20T08:47:05.108Z,35.40
2018-09-20T08:49:34.032Z,35.30
2018-09-20T08:52:02.975Z,36.60
2018-09-20T08:54:31.918Z,37.00
2018-09-20T08:57:00.842Z,35.40
2018-09-20T08:59:29.643Z,35.10
2018-09-20T09:01:58.687Z,35.20
2018-09-20T09:04:27.468Z,34.60
2018-09-20T09:06:56.360Z,34.90
2018-09-20T09:09:25.296Z,36.40
2018-09-20T09:11:54.288Z,36.40
2018-09-20T09:14:23.036Z,36.20
2018-09-20T09:16:51.856Z,36.30
2018-09-20T09:19:20.756Z,34.70
2018-09-20T09:21:49.689Z,36.40
2018-09-20T09:24:18.502Z,37.10
2018-09-20T09:26:47.330Z,37.10
2018-09-20T09:29:16.202Z,37.70
2018-09-20T09:31:44.997Z,35.80
2018-09-20T09:34:14.264Z,35.50
2018-09-20T09:36:43.082Z,36.60
2018-09-20T09:39:13.273Z,36.80
2018-09-20T09:41:42.871Z,36.50
2018-09-20T09:44:11.707Z,36.10
2018-09-20T09:46:40.750Z,35.30
2018-09-20T09:49:09.643Z,35.10
2018-09-20T09:51:38.509Z,35.50
2018-09-20T09:54:07.757Z,37.20
2018-09-20T09:56:36.587Z,36.80
2018-09-20T09:59:05.561Z,37.70
2018-09-20T10:01:34.392Z,37.30
2018-09-20T10:04:03.324Z,37.70
2018-09-20T10:06:32.185Z,38.80
2018-09-20T10:09:01.145Z,38.00
2018-09-20T10:11:30.033Z,38.60
2018-09-20T10:13:59.077Z,38.70
2018-09-20T10:16:27.988Z,37.60
2018-09-20T10:18:56.928Z,38.20
2018-09-20T10:21:25.502Z,39.40
2018-09-20T10:23:53.988Z,39.20
2018-09-20T10:26:22.454Z,39.00
2018-09-20T10:28:50.950Z,40.40
2018-09-20T10:31:19.457Z,39.80
2018-09-20T10:33:47.964Z,39.50
2018-09-20T10:36:16.472Z,37.90
2018-09-20T10:38:44.978Z,38.90
2018-09-20T10:41:13.456Z,40.30
2018-09-20T10:43:41.920Z,39.20
2018-09-20T10:46:10.407Z,40.30
2018-09-20T10:48:38.873Z,38.80
2018-09-20T10:51:07.394Z,36.80
2018-09-20T10:53:35.947Z,35.10
2018-09-20T10:56:04.579Z,34.30
2018-09-20T10:58:33.072Z,34.20
2018-09-20T11:01:01.539Z,35.10
2018-09-20T11:03:30.043Z,34.80
2018-09-20T11:05:58.530Z,34.30
2018-09-20T11:08:27.005Z,34.20
2018-09-20T11:10:55.541Z,33.50
2018-09-20T11:13:24.018Z,33.60
2018-09-20T11:15:52.540Z,33.90
2018-09-20T11:18:21.021Z,34.00
2018-09-20T11:20:49.536Z,33.40
2018-09-20T11:23:18.006Z,32.60
2018-09-20T11:25:46.545Z,32.20
2018-09-20T11:28:15.010Z,31.30
2018-09-20T11:30:43.567Z,31.10
2018-09-20T11:33:12.030Z,31.10
2018-09-20T11:35:40.544Z,30.90
2018-09-20T11:38:09.011Z,30.90
2018-09-20T11:40:37.558Z,31.00
2018-09-20T11:43:06.134Z,30.60
2018-09-20T11:45:34.569Z,30.40
2018-09-20T11:48:03.074Z,30.00
2018-09-20T11:50:31.576Z,29.30
2018-09-20T11:53:00.046Z,29.10
2018-09-20T11:55:28.563Z,28.80
2018-09-20T11:57:57.043Z,29.10
2018-09-20T12:00:25.534Z,29.80
2018-09-20T12:02:54.019Z,30.50
2018-09-20T12:05:22.940Z,31.10
2018-09-20T12:07:51.432Z,30.90
2018-09-20T12:10:20.130Z,31.00
2018-09-20T12:12:48.771Z,31.10
2018-09-20T12:15:17.725Z,31.20
2018-09-20T12:17:46.585Z,30.70
2018-09-20T12:20:15.519Z,30.60
2018-09-20T12:22:44.364Z,30.60
2018-09-20T12:25:13.292Z,30.50
2018-09-20T12:27:42.129Z,30.50
2018-09-20T12:30:11.061Z,30.50
2018-09-20T12:32:39.969Z,30.40
2018-09-20T12:35:08.775Z,30.50
2018-09-20T12:37:38.778Z,30.20
2018-09-20T12:40:08.785Z,30.20
2018-09-20T12:42:37.578Z,30.40
2018-09-20T12:45:06.616Z,30.60
2018-09-20T12:47:35.409Z,30.40
2018-09-20T12:50:04.354Z,30.20
2018-09-20T12:52:33.174Z,30.10
2018-09-20T12:55:02.064Z,30.10
2018-09-20T12:57:30.890Z,30.30
2018-09-20T13:00:00.063Z,30.50
2018-09-20T13:02:28.916Z,30.40
2018-09-20T13:04:57.754Z,29.90
2018-09-20T13:07:26.581Z,30.10
2018-09-20T13:09:55.467Z,30.20
2018-09-20T13:12:24.278Z,30.10
2018-09-20T13:14:53.112Z,30.20
2018-09-20T13:17:22.023Z,30.10
2018-09-20T13:19:50.921Z,30.10
2018-09-20T13:22:19.757Z,30.10
2018-09-20T13:24:48.587Z,30.30
2018-09-20T13:27:17.357Z,30.40
2018-09-20T13:29:46.190Z,30.20
2018-09-20T13:32:14.943Z,30.00
2018-09-20T13:34:43.814Z,30.20
2018-09-20T13:37:13.026Z,30.20
2018-09-20T13:39:41.860Z,30.00
2018-09-20T13:42:10.682Z,30.00
2018-09-20T13:44:39.529Z,30.20
2018-09-20T13:47:08.425Z,30.20
2018-09-20T13:49:37.197Z,30.30
2018-09-20T13:52:06.290Z,30.40
2018-09-20T13:54:35.046Z,30.50
2018-09-20T13:57:03.826Z,30.70
2018-09-20T13:59:32.613Z,30.60
2018-09-20T14:02:01.443Z,30.40
2018-09-20T14:04:30.229Z,30.50
2018-09-20T14:06:59.071Z,30.30
2018-09-20T14:09:27.842Z,30.50
2018-09-20T14:11:56.705Z,30.50
2018-09-20T14:15:00.037Z,30.50
2018-09-20T14:17:28.936Z,30.50
2018-09-20T14:19:57.710Z,30.40
2018-09-20T14:22:26.523Z,30.60
2018-09-20T14:24:55.000Z,30.50
2018-09-20T14:27:23.778Z,30.30
2018-09-20T14:29:52.622Z,30.10
2018-09-20T14:32:21.394Z,30.20
2018-09-20T14:34:50.259Z,30.10
2018-09-20T14:37:19.032Z,30.00
2018-09-20T14:39:47.529Z,30.00
2018-09-20T14:42:15.990Z,30.00
2018-09-20T14:44:44.472Z,29.90
2018-09-20T14:47:13.314Z,29.70
2018-09-20T14:49:42.157Z,29.60
2018-09-20T14:52:11.014Z,29.40
2018-09-20T14:54:39.856Z,29.30
2018-09-20T14:57:08.676Z,29.40
2018-09-20T14:59:37.498Z,29.60
2018-09-20T15:02:06.373Z,29.50
2018-09-20T15:04:35.263Z,29.50
2018-09-20T15:07:04.125Z,29.50
2018-09-20T15:09:32.943Z,29.30
2018-09-20T15:12:01.797Z,29.30
2018-09-20T15:14:30.622Z,29.40
2018-09-20T15:16:59.458Z,29.30
2018-09-20T15:19:28.265Z,29.40
2018-09-20T15:21:57.140Z,29.20
2018-09-20T15:24:26.049Z,29.30
2018-09-20T15:26:55.049Z,29.00
2018-09-20T15:29:23.923Z,28.90
2018-09-20T15:31:52.755Z,28.90
2018-09-20T15:34:21.280Z,28.80
2018-09-20T15:36:50.054Z,28.70
2018-09-20T15:39:18.915Z,28.60
2018-09-20T15:41:47.819Z,28.60
2018-09-20T15:44:16.665Z,28.70
2018-09-20T15:46:45.485Z,28.70
2018-09-20T15:49:14.405Z,28.60
2018-09-20T15:51:43.215Z,28.50
2018-09-20T15:54:12.032Z,28.40
2018-09-20T15:56:40.813Z,28.40
2018-09-20T15:59:09.651Z,28.40
2018-09-20T16:01:38.418Z,28.40
2018-09-20T16:04:07.198Z,28.30
2018-09-20T16:06:36.012Z,28.30
2018-09-20T16:09:07.767Z,28.30
2018-09-20T16:11:36.499Z,28.20
2018-09-20T16:14:05.383Z,28.10
2018-09-20T16:16:34.212Z,28.10
2018-09-20T16:19:03.043Z,28.20
2018-09-20T16:21:31.684Z,28.00
2018-09-20T16:24:00.188Z,28.10
2018-09-20T16:26:28.694Z,27.90
2018-09-20T16:29:10.074Z,27.90
2018-09-20T16:33:22.226Z,27.80
2018-09-20T16:36:00.175Z,27.70
2018-09-20T16:38:40.791Z,27.40
2018-09-20T16:41:10.736Z,27.30
2018-09-20T16:43:39.191Z,27.20
2018-09-20T16:46:07.700Z,27.20
2018-09-20T16:48:36.189Z,27.00
2018-09-20T16:51:04.691Z,26.90
2018-09-20T16:53:33.201Z,26.90
2018-09-20T16:56:01.640Z,26.80
2018-09-20T16:58:30.216Z,26.70
2018-09-20T17:00:58.708Z,26.60
2018-09-20T17:03:27.584Z,26.40
2018-09-20T17:05:56.494Z,26.40
2018-09-20T17:08:25.277Z,26.40
2018-09-20T17:10:54.116Z,26.10
2018-09-20T17:13:22.668Z,25.90
2018-09-20T17:15:51.107Z,25.70
2018-09-20T17:18:19.613Z,25.40
2018-09-20T17:20:48.079Z,25.20
2018-09-20T17:23:16.519Z,25.00
2018-09-20T17:25:45.135Z,24.70
2018-09-20T17:28:13.598Z,24.60
2018-09-20T17:30:42.115Z,24.40
2018-09-20T17:33:10.615Z,24.10
2018-09-20T17:35:39.959Z,24.00
2018-09-20T17:38:09.600Z,24.00
2018-09-20T17:40:39.918Z,23.80
2018-09-20T17:43:11.084Z,23.70
2018-09-20T17:45:39.644Z,23.50
2018-09-20T17:48:08.188Z,23.40
2018-09-20T17:50:36.665Z,23.30
2018-09-20T17:53:05.626Z,23.20
2018-09-20T17:55:34.942Z,23.10
2018-09-20T17:58:03.618Z,23.00
2018-09-20T18:00:32.115Z,22.80
2018-09-20T18:03:00.683Z,22.80
2018-09-20T18:05:29.193Z,22.70
2018-09-20T18:07:57.667Z,22.60
2018-09-20T18:10:26.199Z,22.50
2018-09-20T18:12:54.712Z,22.40
2018-09-20T18:15:23.181Z,22.30
2018-09-20T18:17:51.991Z,22.30
2018-09-20T18:20:20.437Z,22.20
2018-09-20T18:22:48.938Z,22.10
2018-09-20T18:25:17.619Z,22.10
2018-09-20T18:27:46.350Z,21.90
2018-09-20T18:30:14.856Z,21.90
2018-09-20T18:32:43.347Z,21.80
2018-09-20T18:35:11.880Z,21.70
2018-09-20T18:37:41.062Z,21.60
2018-09-20T18:40:09.765Z,21.60
2018-09-20T18:42:38.476Z,21.50
2018-09-20T18:45:07.127Z,21.40
2018-09-20T18:47:35.702Z,21.30
2018-09-20T18:50:04.294Z,21.20
2018-09-20T18:52:32.738Z,21.20
2018-09-20T18:55:01.275Z,21.10
2018-09-20T18:57:29.742Z,21.10
2018-09-20T18:59:58.267Z,21.00
2018-09-20T19:02:26.719Z,20.90
2018-09-20T19:04:55.285Z,20.80
2018-09-20T19:07:23.760Z,20.70
2018-09-20T19:09:52.274Z,20.60
2018-09-20T19:12:20.809Z,20.50
2018-09-20T19:14:49.325Z,20.40
2018-09-20T19:17:17.780Z,20.40
2018-09-20T19:19:46.350Z,20.40
2018-09-20T19:22:14.824Z,20.40
2018-09-20T19:24:43.385Z,20.30
2018-09-20T19:27:11.858Z,20.30
2018-09-20T19:29:40.357Z,20.10
2018-09-20T19:32:08.918Z,20.10
2018-09-20T19:34:37.498Z,20.00
2018-09-20T19:37:06.056Z,19.90
2018-09-20T19:39:34.559Z,19.90
2018-09-20T19:42:03.166Z,19.90
2018-09-20T19:44:31.750Z,19.70
2018-09-20T19:47:00.229Z,19.70
2018-09-20T19:49:28.844Z,19.60
2018-09-20T19:51:57.428Z,19.50
2018-09-20T19:54:25.894Z,19.50
2018-09-20T19:56:54.441Z,19.40
2018-09-20T19:59:22.966Z,19.40
2018-09-20T20:01:51.559Z,19.40
2018-09-20T20:04:20.130Z,19.50
2018-09-20T20:06:48.723Z,19.50
2018-09-20T20:09:17.275Z,19.60
2018-09-20T20:11:45.912Z,19.40
2018-09-20T20:14:14.398Z,19.30
2018-09-20T20:16:42.876Z,19.30
2018-09-20T20:19:11.390Z,19.20
2018-09-20T20:21:39.860Z,19.20
2018-09-20T20:24:08.371Z,19.10
2018-09-20T20:26:36.868Z,19.10
2018-09-20T20:29:05.683Z,19.00
2018-09-20T20:31:34.231Z,19.00
2018-09-20T20:34:02.758Z,18.80
2018-09-20T20:36:31.272Z,18.80
2018-09-20T20:38:59.751Z,18.70
2018-09-20T20:41:28.231Z,18.60
2018-09-20T20:43:56.707Z,18.50
2018-09-20T20:46:25.221Z,18.40
2018-09-20T20:48:53.684Z,18.50
2018-09-20T20:51:22.189Z,18.50
2018-09-20T20:53:50.665Z,18.40
2018-09-20T20:56:19.125Z,18.30
2018-09-20T20:58:47.684Z,18.20
2018-09-20T21:01:19.636Z,18.10
2018-09-20T21:03:48.840Z,18.10
2018-09-20T21:06:18.032Z,18.10
2018-09-20T21:08:47.165Z,18.10
2018-09-20T21:11:16.007Z,18.10
2018-09-20T21:13:44.513Z,18.40
2018-09-20T21:16:12.993Z,18.60
2018-09-20T21:18:41.773Z,19.10
2018-09-20T21:21:10.269Z,19.30
2018-09-20T21:23:38.821Z,19.50
2018-09-20T21:26:07.393Z,19.60
2018-09-20T21:28:35.827Z,19.70
2018-09-20T21:31:04.407Z,19.60
2018-09-20T21:33:32.894Z,19.70
2018-09-20T21:36:01.371Z,19.60
2018-09-20T21:38:29.812Z,19.50
2018-09-20T21:40:58.295Z,19.30
2018-09-20T21:43:26.946Z,18.90
2018-09-20T21:45:55.618Z,18.70
2018-09-20T21:48:24.074Z,18.50
2018-09-20T21:50:52.610Z,18.30
2018-09-20T21:53:21.231Z,18.20
2018-09-20T21:55:49.832Z,18.10
2018-09-20T21:58:18.325Z,18.00
2018-09-20T22:00:46.787Z,17.90
2018-09-20T22:03:15.271Z,17.90
2018-09-20T22:05:43.782Z,17.80
2018-09-20T22:08:12.270Z,17.70
2018-09-20T22:10:40.729Z,17.60
2018-09-20T22:13:09.228Z,17.60
2018-09-20T22:15:37.675Z,17.60
2018-09-20T22:18:06.162Z,17.60
2018-09-20T22:20:34.642Z,17.60
2018-09-20T22:23:03.486Z,17.70
2018-09-20T22:25:31.927Z,17.90
2018-09-20T22:28:00.378Z,18.40
2018-09-20T22:30:28.831Z,18.50
2018-09-20T22:32:57.286Z,18.60
2018-09-20T22:35:25.812Z,18.60
2018-09-20T22:37:54.284Z,18.50
2018-09-20T22:40:22.763Z,18.20
2018-09-20T22:42:51.359Z,18.10
2018-09-20T22:45:19.832Z,17.90
2018-09-20T22:47:48.258Z,17.80
2018-09-20T22:50:16.723Z,17.60
2018-09-20T22:52:45.295Z,17.40
2018-09-20T22:55:13.770Z,17.30
2018-09-20T22:57:42.223Z,17.30
2018-09-20T23:00:10.711Z,17.20
2018-09-20T23:02:39.180Z,17.10
2018-09-20T23:05:07.682Z,17.20
2018-09-20T23:07:36.132Z,17.20
2018-09-20T23:10:04.665Z,17.00
2018-09-20T23:12:33.146Z,16.90
2018-09-20T23:15:01.590Z,16.80
2018-09-20T23:17:30.091Z,16.70
2018-09-20T23:19:58.519Z,16.70
2018-09-20T23:22:26.990Z,16.70
2018-09-20T23:24:55.463Z,16.60
2018-09-20T23:27:23.927Z,16.50
2018-09-20T23:29:52.379Z,16.50
2018-09-20T23:32:20.843Z,16.60
2018-09-20T23:34:49.292Z,16.60
2018-09-20T23:37:17.771Z,16.80
2018-09-20T23:39:46.270Z,17.10
2018-09-20T23:42:14.771Z,17.30
2018-09-20T23:44:43.233Z,17.70
2018-09-20T23:47:11.686Z,17.70
2018-09-20T23:49:40.142Z,17.60
2018-09-20T23:52:08.599Z,17.70
2018-09-20T23:54:37.102Z,17.80
2018-09-20T23:57:05.608Z,17.80
2018-09-20T23:59:34.189Z,17.70
